Аэропорт: Брест-2. Брест

ICAO: UMBB

METAR:
2023-03-31 16:00:00
UMBB 311600Z 23003MPS 7000 BKN040CB SCT100 13/08 Q1000 NOSIG
METAR:
2023-03-31 14:00:00
TAF UMBB 311400Z 3115/3124 23004MPS 5000 BR BKN016 TEMPO 3115/3121 25005G10MPS 3100 -SHRA BR BKN011 BKN020CB